Time;durP1;ratioP1;P1;durP2;ratioP2;P2;SDS_P1;SDS_P2;PMS_P1;PMS_P2;Temp;Humidity;BMP_temperature;BMP_pressure;BME280_temperature;BME280_humidity;BME280_pressure;Samples;Min_cycle;Max_cycle;Signal;HPM_P1;HPM_P2
2021/01/18 05:01:29;;;;;;;;;;;3.20;99.90;;;;;;5588744;22;19929;-61
2021/01/18 05:04:02;;;;;;;;;;;3.20;99.90;;;;;;5036801;28;19925;-62
2021/01/18 05:06:47;;;;;;;;;;;3.10;99.90;;;;;;5036689;28;19933;-61
2021/01/18 05:09:23;;;;;;;;;;;3.10;99.90;;;;;;5037597;28;19925;-61
2021/01/18 05:11:49;;;;;;;;;;;3.10;99.90;;;;;;5036813;28;20372;-61
2021/01/18 05:14:16;;;;;;;;;;;3.20;99.90;;;;;;5036583;28;19929;-61
2021/01/18 05:16:45;;;;;;;;;;;3.10;99.90;;;;;;5036691;28;20400;-63
2021/01/18 05:19:11;;;;;;;;;;;3.20;99.90;;;;;;5036267;28;19932;-62
2021/01/18 05:21:38;;;;;;;;;;;3.20;99.90;;;;;;5036303;28;19925;-61
2021/01/18 05:24:05;;;;;;;;;;;3.20;99.90;;;;;;5037244;28;19929;-61
2021/01/18 05:26:31;;;;;;;;;;;3.10;99.90;;;;;;5036059;28;19925;-62
2021/01/18 05:28:57;;;;;;;;;;;3.10;99.90;;;;;;5035349;28;20380;-62
2021/01/18 05:31:36;;;;;;;;;;;3.10;99.90;;;;;;5035591;28;19925;-61
2021/01/18 05:34:04;;;;;;;;;;;3.10;99.90;;;;;;5035830;28;19932;-61
2021/01/18 05:36:35;;;;;;;;;;;3.00;99.90;;;;;;5036343;28;19929;-61
2021/01/18 05:39:08;;;;;;;;;;;3.00;99.90;;;;;;5035812;28;20427;-60
2021/01/18 05:41:34;;;;;;;;;;;3.00;99.90;;;;;;5035897;28;20411;-62
2021/01/18 05:44:00;;;;;;;;;;;3.00;99.90;;;;;;5035974;28;19979;-62
2021/01/18 05:46:27;;;;;;;;;;;3.00;99.90;;;;;;5035473;28;19925;-62
2021/01/18 05:48:53;;;;;;;;;;;3.00;99.90;;;;;;5035185;28;19929;-61
2021/01/18 05:51:22;;;;;;;;;;;2.90;99.90;;;;;;5034822;28;19947;-62
2021/01/18 05:53:49;;;;;;;;;;;2.90;99.90;;;;;;5034294;28;19929;-62
2021/01/18 05:56:16;;;;;;;;;;;3.00;99.90;;;;;;5034637;28;19956;-61
2021/01/18 05:58:42;;;;;;;;;;;3.00;99.90;;;;;;5034704;28;19965;-61
2021/01/18 06:01:08;;;;;;;;;;;2.90;99.90;;;;;;5034471;28;19925;-59
2021/01/18 06:03:34;;;;;;;;;;;2.90;99.90;;;;;;5034539;28;20380;-61
2021/01/18 06:06:00;;;;;;;;;;;3.00;99.90;;;;;;5034529;28;20298;-60
2021/01/18 06:08:27;;;;;;;;;;;3.00;99.90;;;;;;5034716;28;19932;-62
2021/01/18 06:10:54;;;;;;;;;;;3.00;99.90;;;;;;5034555;28;19976;-61
2021/01/18 06:13:21;;;;;;;;;;;3.00;99.90;;;;;;5034482;28;20320;-61
2021/01/18 06:15:48;;;;;;;;;;;3.00;99.90;;;;;;5034440;28;19925;-62
2021/01/18 06:18:15;;;;;;;;;;;3.00;99.90;;;;;;5034528;28;19929;-61
2021/01/18 06:20:42;;;;;;;;;;;3.00;99.90;;;;;;5034540;28;19952;-60
2021/01/18 06:23:08;;;;;;;;;;;3.00;99.90;;;;;;5034413;28;19932;-63
2021/01/18 06:25:36;;;;;;;;;;;3.00;99.90;;;;;;5034680;28;19957;-61
2021/01/18 06:28:02;;;;;;;;;;;3.00;99.90;;;;;;5034462;28;19992;-60
2021/01/18 06:30:29;;;;;;;;;;;3.00;99.90;;;;;;5034727;28;19940;-62
2021/01/18 06:32:57;;;;;;;;;;;3.10;99.90;;;;;;5034928;28;20288;-59
2021/01/18 06:35:27;;;;;;;;;;;3.00;99.90;;;;;;5034790;28;19925;-61
2021/01/18 06:37:58;;;;;;;;;;;3.00;99.90;;;;;;5034294;28;20403;-60
2021/01/18 06:40:32;;;;;;;;;;;3.00;99.90;;;;;;5034423;28;20346;-59
2021/01/18 06:42:59;;;;;;;;;;;3.00;99.90;;;;;;5034990;28;19925;-58
2021/01/18 06:45:32;;;;;;;;;;;3.00;99.90;;;;;;5034775;28;19926;-60
2021/01/18 06:47:59;;;;;;;;;;;3.50;99.90;;;;;;5034660;28;19925;-61
2021/01/18 06:50:28;;;;;;;;;;;3.90;99.90;;;;;;5034431;28;20245;-58
2021/01/18 06:52:54;;;;;;;;;;;3.90;99.90;;;;;;5034691;28;19926;-61
2021/01/18 06:55:24;;;;;;;;;;;4.00;99.90;;;;;;5034427;28;19925;-59
2021/01/18 06:57:56;;;;;;;;;;;3.80;99.90;;;;;;5036233;28;19932;-60
2021/01/18 07:00:23;;;;;;;;;;;3.70;99.90;;;;;;5035479;28;19999;-59
2021/01/18 07:02:53;;;;;;;;;;;3.90;99.90;;;;;;5035346;28;19925;-59
2021/01/18 07:05:26;;;;;;;;;;;4.20;99.90;;;;;;5038827;28;20333;-60
2021/01/18 07:07:55;;;;;;;;;;;4.40;99.90;;;;;;5039006;28;19925;-59
2021/01/18 07:10:21;;;;;;;;;;;4.50;99.90;;;;;;5039083;28;19975;-60
2021/01/18 07:12:48;;;;;;;;;;;4.40;99.90;;;;;;5038395;28;19925;-60
2021/01/18 07:15:15;;;;;;;;;;;4.30;99.90;;;;;;5038199;28;19929;-60
2021/01/18 07:17:52;;;;;;;;;;;4.20;99.90;;;;;;5039404;28;19972;-59
2021/01/18 07:20:20;;;;;;;;;;;4.00;99.90;;;;;;5038827;28;19929;-60
2021/01/18 07:22:54;;;;;;;;;;;3.90;99.90;;;;;;5038526;28;19925;-60
2021/01/18 07:25:22;;;;;;;;;;;3.80;99.90;;;;;;5038659;28;19925;-61
2021/01/18 07:27:51;;;;;;;;;;;3.70;99.90;;;;;;5038126;28;19925;-61
2021/01/18 07:30:18;;;;;;;;;;;3.70;99.90;;;;;;5038163;28;19926;-61
2021/01/18 07:32:44;;;;;;;;;;;3.70;99.90;;;;;;5038209;28;19925;-60
2021/01/18 07:35:12;;;;;;;;;;;3.70;99.90;;;;;;5038326;28;20281;-60
2021/01/18 07:37:38;;;;;;;;;;;3.60;99.90;;;;;;5038237;28;20396;-59
2021/01/18 07:40:13;;;;;;;;;;;3.60;99.90;;;;;;5038431;28;19929;-61
2021/01/18 07:42:40;;;;;;;;;;;3.60;99.90;;;;;;5038491;28;19925;-59
2021/01/18 07:45:17;;;;;;;;;;;3.50;99.90;;;;;;5037763;28;20015;-59
2021/01/18 07:48:04;;;;;;;;;;;3.50;99.90;;;;;;5037750;28;19925;-59
2021/01/18 07:50:31;;;;;;;;;;;3.50;99.90;;;;;;5037333;28;19947;-59
2021/01/18 07:52:58;;;;;;;;;;;3.50;99.90;;;;;;5037341;28;19991;-62
2021/01/18 07:55:24;;;;;;;;;;;3.60;99.90;;;;;;5038862;28;19925;-61
2021/01/18 07:57:50;;;;;;;;;;;3.50;99.90;;;;;;5037111;28;19933;-59
2021/01/18 08:00:23;;;;;;;;;;;3.60;99.90;;;;;;5036876;28;19931;-59
2021/01/18 08:02:50;;;;;;;;;;;3.60;99.90;;;;;;5037320;28;20067;-60
2021/01/18 08:05:19;;;;;;;;;;;3.60;99.90;;;;;;5049604;28;20015;-58
2021/01/18 08:08:02;;;;;;;;;;;3.60;99.90;;;;;;5037427;28;19925;-61
2021/01/18 08:10:48;;;;;;;;;;;3.70;99.90;;;;;;5037644;28;20059;-62
2021/01/18 08:13:34;;;;;;;;;;;3.70;99.90;;;;;;5037332;28;19936;-62
2021/01/18 08:16:09;;;;;;;;;;;3.70;99.90;;;;;;5036419;28;19925;-61
2021/01/18 08:18:35;;;;;;;;;;;3.70;99.90;;;;;;5037190;28;20011;-60
2021/01/18 08:21:26;;;;;;;;;;;3.70;99.90;;;;;;5041081;28;19926;-60
2021/01/18 08:23:53;;;;;;;;;;;3.70;99.90;;;;;;5042330;28;19925;-61
2021/01/18 08:26:20;;;;;;;;;;;3.70;99.90;;;;;;5049220;28;19971;-61
2021/01/18 08:28:47;;;;;;;;;;;3.70;99.90;;;;;;5054390;28;19925;-61
2021/01/18 08:31:13;;;;;;;;;;;3.70;99.90;;;;;;5048757;28;19948;-60
2021/01/18 08:33:39;;;;;;;;;;;3.70;99.90;;;;;;5037366;28;19925;-62
2021/01/18 08:36:06;;;;;;;;;;;3.70;99.90;;;;;;5036810;28;19929;-60
2021/01/18 08:38:32;;;;;;;;;;;3.80;99.90;;;;;;5036699;28;19932;-59
2021/01/18 08:41:03;;;;;;;;;;;3.90;99.90;;;;;;5037025;28;19925;-61
2021/01/18 08:43:44;;;;;;;;;;;3.90;99.90;;;;;;5037146;28;19975;-62
2021/01/18 08:46:25;;;;;;;;;;;3.90;99.90;;;;;;5037060;28;19979;-60
2021/01/18 08:49:11;;;;;;;;;;;3.90;99.90;;;;;;5036591;28;19932;-60
2021/01/18 08:51:43;;;;;;;;;;;4.00;99.90;;;;;;5045137;28;19926;-59
2021/01/18 08:54:10;;;;;;;;;;;4.10;99.90;;;;;;5059704;28;19932;-60
2021/01/18 08:56:39;;;;;;;;;;;4.10;99.90;;;;;;5058693;28;19937;-62
2021/01/18 08:59:13;;;;;;;;;;;4.20;99.90;;;;;;5042007;28;20412;-60
2021/01/18 09:01:39;;;;;;;;;;;4.20;99.90;;;;;;5038248;28;19925;-59
2021/01/18 09:04:05;;;;;;;;;;;4.30;99.90;;;;;;5036860;28;19929;-59
2021/01/18 09:06:32;;;;;;;;;;;4.40;99.90;;;;;;5036605;28;20015;-59
2021/01/18 09:09:02;;;;;;;;;;;4.50;99.90;;;;;;5036707;28;20403;-59
2021/01/18 09:11:28;;;;;;;;;;;4.50;99.90;;;;;;5036916;28;19926;-59
2021/01/18 09:13:55;;;;;;;;;;;4.60;99.90;;;;;;5036509;28;19979;-60
2021/01/18 09:16:21;;;;;;;;;;;4.70;99.90;;;;;;5036777;28;19929;-59
2021/01/18 09:18:47;;;;;;;;;;;4.70;99.90;;;;;;5036256;28;19925;-59
2021/01/18 09:21:16;;;;;;;;;;;4.80;99.90;;;;;;5036534;28;19929;-59
2021/01/18 09:23:42;;;;;;;;;;;4.80;99.90;;;;;;5036455;28;20368;-59
2021/01/18 09:26:11;;;;;;;;;;;4.90;99.90;;;;;;5036522;28;19925;-59
2021/01/18 09:28:37;;;;;;;;;;;4.90;99.90;;;;;;5036738;28;19932;-59
2021/01/18 09:31:08;;;;;;;;;;;4.80;99.90;;;;;;5036190;28;19932;-59
2021/01/18 09:33:35;;;;;;;;;;;4.80;99.90;;;;;;5036593;28;19925;-59
2021/01/18 09:36:01;;;;;;;;;;;4.80;99.90;;;;;;5035988;28;19932;-60
2021/01/18 09:38:27;;;;;;;;;;;4.70;99.90;;;;;;5036063;28;19925;-59
2021/01/18 09:40:53;;;;;;;;;;;4.70;99.90;;;;;;5036331;28;19925;-60
2021/01/18 09:43:20;;;;;;;;;;;4.80;99.90;;;;;;5036261;28;19925;-61
2021/01/18 09:45:52;;;;;;;;;;;4.80;99.90;;;;;;5035902;28;19968;-60
2021/01/18 09:48:20;;;;;;;;;;;4.90;99.90;;;;;;5036178;28;19971;-60
2021/01/18 09:50:46;;;;;;;;;;;5.00;99.90;;;;;;5035930;28;19932;-60
2021/01/18 09:53:13;;;;;;;;;;;5.00;99.90;;;;;;5035754;28;19932;-59
2021/01/18 09:55:42;;;;;;;;;;;5.00;99.90;;;;;;5035925;28;19925;-60
2021/01/18 09:58:09;;;;;;;;;;;5.00;99.90;;;;;;5035832;28;19929;-60
2021/01/18 10:00:37;;;;;;;;;;;5.00;99.90;;;;;;5035681;28;19925;-59
2021/01/18 10:03:03;;;;;;;;;;;5.00;99.90;;;;;;5035769;28;19975;-60
2021/01/18 10:05:32;;;;;;;;;;;5.00;99.90;;;;;;5036021;28;19933;-59
2021/01/18 10:07:59;;;;;;;;;;;5.00;99.90;;;;;;5035880;28;19925;-59
2021/01/18 10:10:25;;;;;;;;;;;5.00;99.90;;;;;;5035702;28;19929;-59
2021/01/18 10:12:52;;;;;;;;;;;5.10;99.90;;;;;;5035060;28;19925;-59
2021/01/18 10:15:23;;;;;;;;;;;5.10;99.90;;;;;;5034789;28;19975;-60
2021/01/18 10:17:49;;;;;;;;;;;5.20;99.90;;;;;;5034916;28;20036;-60
2021/01/18 10:20:21;;;;;;;;;;;5.10;99.90;;;;;;5034800;28;20299;-61
2021/01/18 10:22:48;;;;;;;;;;;5.10;99.90;;;;;;5035163;28;19932;-60
2021/01/18 10:25:14;;;;;;;;;;;5.00;99.90;;;;;;5035183;28;19932;-59
2021/01/18 10:27:48;;;;;;;;;;;5.10;99.90;;;;;;5034962;28;20442;-58
2021/01/18 10:30:15;;;;;;;;;;;5.00;99.90;;;;;;5035862;28;20355;-59
2021/01/18 10:32:42;;;;;;;;;;;5.10;99.90;;;;;;5036154;28;19925;-59
2021/01/18 10:35:21;;;;;;;;;;;5.00;99.90;;;;;;5035507;28;19925;-60
2021/01/18 10:37:48;;;;;;;;;;;5.00;99.90;;;;;;5034244;28;20371;-59
2021/01/18 10:40:19;;;;;;;;;;;5.10;99.90;;;;;;5035687;28;19929;-60
2021/01/18 10:42:48;;;;;;;;;;;5.10;99.90;;;;;;5035449;28;19929;-59
2021/01/18 10:45:15;;;;;;;;;;;5.20;99.90;;;;;;5035083;28;19926;-59
2021/01/18 10:47:52;;;;;;;;;;;5.30;99.90;;;;;;5035051;28;19926;-59
2021/01/18 10:50:22;;;;;;;;;;;5.50;99.90;;;;;;5034910;28;19925;-59
2021/01/18 10:52:49;;;;;;;;;;;5.60;99.90;;;;;;5034834;28;20388;-59
2021/01/18 10:55:17;;;;;;;;;;;5.50;99.90;;;;;;5034826;28;19996;-60
2021/01/18 10:57:45;;;;;;;;;;;5.50;99.90;;;;;;5035238;28;19925;-60
2021/01/18 11:00:12;;;;;;;;;;;5.40;99.90;;;;;;5034883;28;19925;-60
2021/01/18 11:02:38;;;;;;;;;;;5.50;99.90;;;;;;5034819;28;19929;-59
2021/01/18 11:05:04;;;;;;;;;;;5.40;99.90;;;;;;5035057;28;20329;-60
2021/01/18 11:07:30;;;;;;;;;;;5.40;99.90;;;;;;5035641;28;19925;-61
2021/01/18 11:09:58;;;;;;;;;;;5.60;99.90;;;;;;5035712;28;19933;-60
2021/01/18 11:12:29;;;;;;;;;;;5.70;99.90;;;;;;5035991;28;19926;-60
2021/01/18 11:14:57;;;;;;;;;;;5.90;99.90;;;;;;5034524;28;20376;-61
2021/01/18 11:17:27;;;;;;;;;;;5.90;99.90;;;;;;5035529;28;19925;-62
2021/01/18 11:19:53;;;;;;;;;;;5.90;99.90;;;;;;5034153;28;19925;-62
2021/01/18 11:22:19;;;;;;;;;;;6.00;99.90;;;;;;5033826;28;19932;-61
2021/01/18 11:24:45;;;;;;;;;;;6.00;99.90;;;;;;5033983;28;19936;-60
2021/01/18 11:27:12;;;;;;;;;;;6.10;99.90;;;;;;5035218;28;19925;-60
2021/01/18 11:29:38;;;;;;;;;;;6.20;99.90;;;;;;5034010;28;19925;-62
2021/01/18 11:32:04;;;;;;;;;;;6.30;99.90;;;;;;5034135;28;19925;-62
2021/01/18 11:34:30;;;;;;;;;;;6.30;99.90;;;;;;5034027;28;19926;-63
2021/01/18 11:37:01;;;;;;;;;;;6.30;99.90;;;;;;5033850;28;19925;-61
2021/01/18 11:39:27;;;;;;;;;;;6.50;99.90;;;;;;5034313;28;19926;-61
2021/01/18 11:41:53;;;;;;;;;;;6.60;99.90;;;;;;5033955;28;20384;-61
2021/01/18 11:44:20;;;;;;;;;;;6.60;99.90;;;;;;5033962;28;19971;-61
2021/01/18 11:46:46;;;;;;;;;;;6.60;99.90;;;;;;5033916;28;19948;-62
2021/01/18 11:49:12;;;;;;;;;;;6.60;99.90;;;;;;5034201;28;19925;-62
2021/01/18 11:51:38;;;;;;;;;;;6.60;99.90;;;;;;5036883;28;19932;-61
2021/01/18 11:54:04;;;;;;;;;;;6.50;99.90;;;;;;5037528;28;19926;-62
2021/01/18 11:56:32;;;;;;;;;;;6.40;99.90;;;;;;5039000;28;19925;-61
2021/01/18 11:58:58;;;;;;;;;;;6.50;99.90;;;;;;5039692;28;20019;-61
2021/01/18 12:01:25;;;;;;;;;;;6.50;99.90;;;;;;5037316;28;19932;-62
2021/01/18 12:03:51;;;;;;;;;;;6.50;99.90;;;;;;5037330;28;20426;-62
2021/01/18 12:06:17;;;;;;;;;;;6.60;99.90;;;;;;5037659;28;19925;-61
2021/01/18 12:08:43;;;;;;;;;;;6.60;99.90;;;;;;5038464;28;19925;-61
2021/01/18 12:11:09;;;;;;;;;;;6.50;99.90;;;;;;5043841;28;19925;-62
2021/01/18 12:13:35;;;;;;;;;;;6.50;99.90;;;;;;5057670;28;19940;-61
2021/01/18 12:16:01;;;;;;;;;;;6.50;99.90;;;;;;5058797;28;19913;-60
2021/01/18 12:18:28;;;;;;;;;;;6.60;99.90;;;;;;5060649;28;19916;-62
2021/01/18 12:20:53;;;;;;;;;;;6.60;99.90;;;;;;5060512;28;19936;-61
2021/01/18 12:23:20;;;;;;;;;;;6.60;99.90;;;;;;5060347;28;19914;-62
2021/01/18 12:25:46;;;;;;;;;;;6.50;99.90;;;;;;5060892;28;19989;-62
2021/01/18 12:28:12;;;;;;;;;;;6.50;99.90;;;;;;5060565;28;19916;-61
2021/01/18 12:30:38;;;;;;;;;;;6.50;99.90;;;;;;5060522;28;19987;-62
2021/01/18 12:33:04;;;;;;;;;;;6.50;99.90;;;;;;5060893;28;19913;-61
2021/01/18 12:35:31;;;;;;;;;;;6.30;99.90;;;;;;5045995;28;20295;-61
2021/01/18 12:37:57;;;;;;;;;;;6.20;99.90;;;;;;5037920;28;19928;-62
2021/01/18 12:40:23;;;;;;;;;;;6.00;99.90;;;;;;5038391;28;20107;-61
2021/01/18 12:42:49;;;;;;;;;;;5.90;99.90;;;;;;5038492;28;19925;-61
2021/01/18 12:45:16;;;;;;;;;;;6.00;99.90;;;;;;5037848;28;19936;-61
2021/01/18 12:47:42;;;;;;;;;;;6.00;99.90;;;;;;5036839;28;19925;-61
2021/01/18 12:50:09;;;;;;;;;;;6.00;99.90;;;;;;5036439;28;19925;-59
2021/01/18 12:52:39;;;;;;;;;;;6.00;99.90;;;;;;5037296;28;19929;-61
2021/01/18 12:55:05;;;;;;;;;;;6.10;99.90;;;;;;5036579;28;19948;-60
2021/01/18 12:57:31;;;;;;;;;;;6.20;99.90;;;;;;5036398;28;19928;-62
2021/01/18 12:59:57;;;;;;;;;;;6.20;99.90;;;;;;5036496;28;19925;-61
2021/01/18 13:02:24;;;;;;;;;;;6.20;99.90;;;;;;5036533;28;19973;-60
2021/01/18 13:04:52;;;;;;;;;;;6.20;99.90;;;;;;5054097;28;19921;-60
2021/01/18 13:07:18;;;;;;;;;;;6.20;99.90;;;;;;5059904;28;19909;-60
2021/01/18 13:09:45;;;;;;;;;;;6.20;99.90;;;;;;5046055;28;19929;-61
2021/01/18 13:12:11;;;;;;;;;;;6.10;99.90;;;;;;5040770;28;19929;-61
2021/01/18 13:14:37;;;;;;;;;;;5.90;99.90;;;;;;5039461;28;19932;-61
2021/01/18 13:17:04;;;;;;;;;;;5.80;99.90;;;;;;5038634;28;19925;-60
2021/01/18 13:19:31;;;;;;;;;;;5.70;99.90;;;;;;5037993;28;19976;-62
2021/01/18 13:21:58;;;;;;;;;;;5.50;99.90;;;;;;5037453;28;19926;-62
2021/01/18 13:24:24;;;;;;;;;;;5.50;99.90;;;;;;5036304;28;19936;-63
2021/01/18 13:26:51;;;;;;;;;;;5.50;99.90;;;;;;5038439;28;19932;-62
2021/01/18 13:29:17;;;;;;;;;;;5.50;99.90;;;;;;5038764;28;19932;-62
2021/01/18 13:31:44;;;;;;;;;;;5.40;99.90;;;;;;5044017;28;19925;-61
2021/01/18 13:34:11;;;;;;;;;;;5.20;99.90;;;;;;5043280;28;19932;-62
2021/01/18 13:36:37;;;;;;;;;;;5.10;99.90;;;;;;5045142;28;20406;-62
2021/01/18 13:39:04;;;;;;;;;;;5.10;99.90;;;;;;5047246;28;20474;-62
2021/01/18 13:41:30;;;;;;;;;;;5.00;99.90;;;;;;5035486;28;19925;-62
2021/01/18 13:43:57;;;;;;;;;;;4.80;99.90;;;;;;5035681;28;20031;-61
2021/01/18 13:46:24;;;;;;;;;;;4.90;99.90;;;;;;5035284;28;19933;-62
2021/01/18 13:48:50;;;;;;;;;;;4.90;99.90;;;;;;5035990;28;19925;-61
2021/01/18 13:51:17;;;;;;;;;;;5.00;99.90;;;;;;5035188;28;20252;-61
2021/01/18 13:53:43;;;;;;;;;;;5.00;99.90;;;;;;5036284;28;19925;-59
2021/01/18 13:56:13;;;;;;;;;;;5.10;99.90;;;;;;5035075;28;20269;-62
2021/01/18 13:58:39;;;;;;;;;;;5.10;99.90;;;;;;5034808;28;20384;-61
2021/01/18 14:01:06;;;;;;;;;;;5.10;99.90;;;;;;5034622;28;20068;-61
2021/01/18 14:03:32;;;;;;;;;;;5.20;99.90;;;;;;5034973;28;19925;-61
2021/01/18 14:05:58;;;;;;;;;;;5.00;99.90;;;;;;5034495;28;20368;-61
2021/01/18 14:08:24;;;;;;;;;;;5.00;99.90;;;;;;5035319;28;19997;-62
2021/01/18 14:10:50;;;;;;;;;;;5.00;99.90;;;;;;5034899;28;19927;-62
2021/01/18 14:13:17;;;;;;;;;;;5.00;99.90;;;;;;5033973;28;20288;-62
2021/01/18 14:15:43;;;;;;;;;;;5.00;99.90;;;;;;5034904;28;19948;-61
2021/01/18 14:18:10;;;;;;;;;;;5.00;99.90;;;;;;5034279;28;20384;-62
2021/01/18 14:20:36;;;;;;;;;;;5.00;99.90;;;;;;5035816;28;19925;-60
2021/01/18 14:23:02;;;;;;;;;;;5.00;99.90;;;;;;5034606;28;19925;-62
2021/01/18 14:25:28;;;;;;;;;;;5.00;99.90;;;;;;5034564;28;19925;-60
2021/01/18 14:27:54;;;;;;;;;;;5.10;99.90;;;;;;5034735;28;20338;-60
2021/01/18 14:30:21;;;;;;;;;;;5.10;99.90;;;;;;5034153;28;20434;-60
2021/01/18 14:32:48;;;;;;;;;;;5.20;99.90;;;;;;5033748;28;21291;-61
2021/01/18 14:35:15;;;;;;;;;;;5.20;99.90;;;;;;5034588;28;19926;-62
2021/01/18 14:37:41;;;;;;;;;;;5.10;99.90;;;;;;5034255;28;19929;-61
2021/01/18 14:40:08;;;;;;;;;;;5.00;99.90;;;;;;5034543;28;19926;-62
2021/01/18 14:42:37;;;;;;;;;;;4.90;99.90;;;;;;5035121;28;19925;-61
2021/01/18 14:45:05;;;;;;;;;;;4.80;99.90;;;;;;5034367;28;19925;-61
2021/01/18 14:47:35;;;;;;;;;;;4.90;99.90;;;;;;5034073;28;19976;-61
2021/01/18 14:50:01;;;;;;;;;;;4.90;99.90;;;;;;5034280;28;19932;-61
2021/01/18 14:52:28;;;;;;;;;;;4.90;99.90;;;;;;5034016;28;19955;-61
2021/01/18 14:54:54;;;;;;;;;;;4.90;99.90;;;;;;5034888;28;19925;-61
2021/01/18 14:57:20;;;;;;;;;;;4.80;99.90;;;;;;5035100;28;19929;-61
2021/01/18 14:59:46;;;;;;;;;;;4.80;99.90;;;;;;5034153;28;19929;-62
2021/01/18 15:02:12;;;;;;;;;;;4.80;99.90;;;;;;5033971;28;19932;-61
2021/01/18 15:04:38;;;;;;;;;;;4.90;99.90;;;;;;5034443;28;20273;-62
2021/01/18 15:07:04;;;;;;;;;;;4.80;99.90;;;;;;5034557;28;19940;-60
2021/01/18 15:09:31;;;;;;;;;;;4.80;99.90;;;;;;5034578;28;19940;-61
2021/01/18 15:11:57;;;;;;;;;;;4.80;99.90;;;;;;5034025;28;19944;-61
2021/01/18 15:14:25;;;;;;;;;;;4.80;99.90;;;;;;5034299;28;19925;-60
2021/01/18 15:16:51;;;;;;;;;;;4.80;99.90;;;;;;5034435;28;19925;-61
2021/01/18 15:19:17;;;;;;;;;;;4.80;99.90;;;;;;5033945;28;20273;-60
2021/01/18 15:21:44;;;;;;;;;;;4.80;99.90;;;;;;5034040;28;19925;-62
2021/01/18 15:24:10;;;;;;;;;;;4.80;99.90;;;;;;5034664;28;19948;-62
2021/01/18 15:26:38;;;;;;;;;;;4.70;99.90;;;;;;5037759;28;19929;-62
2021/01/18 15:29:04;;;;;;;;;;;4.60;99.90;;;;;;5037816;28;19932;-63
2021/01/18 15:31:30;;;;;;;;;;;4.50;99.90;;;;;;5038022;28;19925;-61
2021/01/18 15:33:56;;;;;;;;;;;4.50;99.90;;;;;;5037643;28;19929;-62
2021/01/18 15:36:22;;;;;;;;;;;4.50;99.90;;;;;;5037665;28;19925;-60
2021/01/18 15:38:49;;;;;;;;;;;4.40;99.90;;;;;;5037811;28;19925;-61
2021/01/18 15:41:16;;;;;;;;;;;4.40;99.90;;;;;;5037359;28;19925;-61
2021/01/18 15:43:43;;;;;;;;;;;4.40;99.90;;;;;;5048621;28;19925;-63
2021/01/18 15:46:09;;;;;;;;;;;4.40;99.90;;;;;;5037280;28;19972;-62
2021/01/18 15:48:35;;;;;;;;;;;4.40;99.90;;;;;;5038089;28;19925;-59
2021/01/18 15:51:01;;;;;;;;;;;4.30;99.90;;;;;;5038631;28;19926;-62
2021/01/18 15:53:27;;;;;;;;;;;4.40;99.90;;;;;;5038153;28;20075;-61
2021/01/18 15:55:53;;;;;;;;;;;4.40;99.90;;;;;;5037514;28;20261;-61
2021/01/18 15:58:19;;;;;;;;;;;4.40;99.90;;;;;;5038101;28;19925;-62
2021/01/18 16:00:46;;;;;;;;;;;4.50;99.90;;;;;;5038242;28;20296;-60
2021/01/18 16:03:12;;;;;;;;;;;4.40;99.90;;;;;;5036906;28;20339;-62
2021/01/18 16:05:38;;;;;;;;;;;4.40;99.90;;;;;;5036749;28;19925;-63
2021/01/18 16:08:04;;;;;;;;;;;4.50;99.90;;;;;;5036442;28;20376;-61
2021/01/18 16:10:30;;;;;;;;;;;4.50;99.90;;;;;;5036920;28;19932;-62
2021/01/18 16:12:56;;;;;;;;;;;4.50;99.90;;;;;;5036985;28;19925;-62
2021/01/18 16:15:23;;;;;;;;;;;4.50;99.90;;;;;;5038799;28;20334;-63
2021/01/18 16:17:49;;;;;;;;;;;4.60;99.90;;;;;;5037112;28;20380;-60
2021/01/18 16:20:16;;;;;;;;;;;4.60;99.90;;;;;;5036856;28;19928;-62
2021/01/18 16:22:42;;;;;;;;;;;4.60;99.90;;;;;;5036486;28;19925;-62
2021/01/18 16:25:08;;;;;;;;;;;4.60;99.90;;;;;;5036762;28;20075;-61
2021/01/18 16:27:39;;;;;;;;;;;4.50;99.90;;;;;;5038117;28;19987;-60
2021/01/18 16:30:05;;;;;;;;;;;4.50;99.90;;;;;;5037043;28;19925;-61
2021/01/18 16:32:31;;;;;;;;;;;4.50;99.90;;;;;;5036484;28;19925;-62
2021/01/18 16:35:03;;;;;;;;;;;4.50;99.90;;;;;;5036483;28;19948;-62
2021/01/18 16:37:30;;;;;;;;;;;4.50;99.90;;;;;;5035594;28;19932;-60
2021/01/18 16:39:56;;;;;;;;;;;4.40;99.90;;;;;;5035931;28;19929;-60
2021/01/18 16:42:22;;;;;;;;;;;4.30;99.90;;;;;;5036227;28;19925;-61
2021/01/18 16:44:48;;;;;;;;;;;4.30;99.90;;;;;;5036038;28;19948;-61
2021/01/18 16:47:14;;;;;;;;;;;4.20;99.90;;;;;;5036337;28;19932;-61
2021/01/18 16:49:40;;;;;;;;;;;4.20;99.90;;;;;;5036007;28;19932;-62
2021/01/18 16:52:07;;;;;;;;;;;4.10;99.90;;;;;;5037402;28;19975;-63
2021/01/18 16:54:34;;;;;;;;;;;4.20;99.90;;;;;;5038215;28;19925;-61
2021/01/18 16:57:00;;;;;;;;;;;4.10;99.90;;;;;;5036488;28;19925;-61
2021/01/18 16:59:26;;;;;;;;;;;4.00;99.90;;;;;;5036347;28;19937;-61
2021/01/18 17:01:55;;;;;;;;;;;4.10;99.90;;;;;;5035639;28;20323;-61
2021/01/18 17:04:21;;;;;;;;;;;4.00;99.90;;;;;;5036044;28;20021;-63
2021/01/18 17:06:47;;;;;;;;;;;4.00;99.90;;;;;;5036288;28;19932;-62
2021/01/18 17:09:16;;;;;;;;;;;4.00;99.90;;;;;;5035679;28;20381;-61
2021/01/18 17:11:43;;;;;;;;;;;3.90;99.90;;;;;;5036833;28;19925;-62
2021/01/18 17:14:09;;;;;;;;;;;4.00;99.90;;;;;;5039062;28;19932;-62
2021/01/18 17:16:35;;;;;;;;;;;3.90;99.90;;;;;;5059566;28;19932;-62
2021/01/18 17:19:02;;;;;;;;;;;3.90;99.90;;;;;;5057143;28;19925;-61
2021/01/18 17:21:28;;;;;;;;;;;3.90;99.90;;;;;;5050172;28;19925;-61
2021/01/18 17:23:54;;;;;;;;;;;3.80;99.90;;;;;;5040429;28;20335;-60
2021/01/18 17:26:23;;;;;;;;;;;3.80;99.90;;;;;;5038828;28;19928;-62
2021/01/18 17:28:50;;;;;;;;;;;3.80;99.90;;;;;;5037103;28;19972;-62
2021/01/18 17:31:16;;;;;;;;;;;3.80;99.90;;;;;;5035354;28;20392;-63
2021/01/18 17:33:42;;;;;;;;;;;3.80;99.90;;;;;;5035365;28;20288;-63
2021/01/18 17:36:08;;;;;;;;;;;3.80;99.90;;;;;;5035560;28;19940;-62
2021/01/18 17:38:35;;;;;;;;;;;3.80;99.90;;;;;;5037403;28;20327;-61
2021/01/18 17:41:01;;;;;;;;;;;3.80;99.90;;;;;;5035127;28;19932;-62
2021/01/18 17:43:28;;;;;;;;;;;3.80;99.90;;;;;;5035097;28;20385;-61
2021/01/18 17:45:54;;;;;;;;;;;3.80;99.90;;;;;;5035138;28;19925;-63
2021/01/18 17:48:20;;;;;;;;;;;3.80;99.90;;;;;;5034181;28;19929;-62
2021/01/18 17:50:46;;;;;;;;;;;3.80;99.90;;;;;;5034980;28;20319;-62
2021/01/18 17:53:12;;;;;;;;;;;3.80;99.90;;;;;;5035217;28;19925;-60
2021/01/18 17:55:38;;;;;;;;;;;3.90;99.90;;;;;;5035335;28;19963;-62
2021/01/18 17:58:04;;;;;;;;;;;3.90;99.90;;;;;;5035403;28;19956;-61
2021/01/18 18:00:31;;;;;;;;;;;3.90;99.90;;;;;;5035278;28;19925;-62
2021/01/18 18:02:57;;;;;;;;;;;3.90;99.90;;;;;;5035190;28;19979;-62
2021/01/18 18:05:23;;;;;;;;;;;3.80;99.90;;;;;;5035171;28;19925;-62
2021/01/18 18:07:49;;;;;;;;;;;3.80;99.90;;;;;;5036007;28;19934;-62
2021/01/18 18:10:15;;;;;;;;;;;3.80;99.90;;;;;;5036105;28;19971;-62
2021/01/18 18:12:41;;;;;;;;;;;3.90;99.90;;;;;;5035602;28;19925;-62
2021/01/18 18:15:08;;;;;;;;;;;3.70;99.90;;;;;;5035274;28;19929;-62
2021/01/18 18:17:35;;;;;;;;;;;3.80;99.90;;;;;;5035898;28;19925;-61
2021/01/18 18:20:01;;;;;;;;;;;3.80;99.90;;;;;;5035933;28;19925;-60
2021/01/18 18:22:29;;;;;;;;;;;3.80;99.90;;;;;;5035696;28;19925;-61
2021/01/18 18:24:56;;;;;;;;;;;3.80;99.90;;;;;;5036018;28;19968;-62
2021/01/18 18:27:22;;;;;;;;;;;3.80;99.90;;;;;;5035356;28;19925;-61
2021/01/18 18:29:48;;;;;;;;;;;3.80;99.90;;;;;;5036327;28;20273;-61
2021/01/18 18:32:14;;;;;;;;;;;3.80;99.90;;;;;;5035115;28;19925;-61
2021/01/18 18:34:40;;;;;;;;;;;3.90;99.90;;;;;;5034901;28;20288;-61
2021/01/18 18:37:08;;;;;;;;;;;3.90;99.90;;;;;;5034728;28;20434;-61
2021/01/18 18:39:34;;;;;;;;;;;3.90;99.90;;;;;;5034578;28;20329;-61
2021/01/18 18:42:00;;;;;;;;;;;4.00;99.90;;;;;;5034684;28;19925;-62
2021/01/18 18:44:27;;;;;;;;;;;4.00;99.90;;;;;;5034992;28;19932;-61
2021/01/18 18:46:53;;;;;;;;;;;4.00;99.90;;;;;;5036192;28;19925;-60
2021/01/18 18:49:19;;;;;;;;;;;4.00;99.90;;;;;;5035036;28;19925;-60
2021/01/18 18:51:48;;;;;;;;;;;4.00;99.90;;;;;;5034859;28;19929;-63
2021/01/18 18:54:14;;;;;;;;;;;4.00;99.90;;;;;;5034155;28;20020;-62
2021/01/18 18:56:44;;;;;;;;;;;4.00;99.90;;;;;;5034638;28;19929;-62
2021/01/18 18:59:10;;;;;;;;;;;4.00;99.90;;;;;;5035280;28;19925;-62
2021/01/18 19:01:36;;;;;;;;;;;4.00;99.90;;;;;;5038555;28;20392;-62
2021/01/18 19:04:03;;;;;;;;;;;4.00;99.90;;;;;;5039202;28;19925;-60
2021/01/18 19:06:29;;;;;;;;;;;3.90;99.90;;;;;;5039014;28;19925;-63
2021/01/18 19:08:56;;;;;;;;;;;3.80;99.90;;;;;;5039150;28;19932;-61
2021/01/18 19:11:22;;;;;;;;;;;3.80;99.90;;;;;;5038428;28;19932;-62
2021/01/18 19:13:48;;;;;;;;;;;3.80;99.90;;;;;;5039182;28;19948;-61
2021/01/18 19:16:14;;;;;;;;;;;3.70;99.90;;;;;;5039153;28;19925;-61
2021/01/18 19:18:40;;;;;;;;;;;3.70;99.90;;;;;;5038530;28;20020;-61
2021/01/18 19:21:07;;;;;;;;;;;3.60;99.90;;;;;;5038090;28;19936;-62
2021/01/18 19:23:33;;;;;;;;;;;3.60;99.90;;;;;;5038747;28;19979;-63
2021/01/18 19:26:00;;;;;;;;;;;3.70;99.90;;;;;;5038252;28;19925;-62
2021/01/18 19:28:26;;;;;;;;;;;3.70;99.90;;;;;;5038492;28;19929;-64
2021/01/18 19:30:52;;;;;;;;;;;3.60;99.90;;;;;;5038271;28;19991;-61
2021/01/18 19:33:18;;;;;;;;;;;3.70;99.90;;;;;;5038374;28;19988;-63